Airport View

Enter AWOS ICAO identifier for current METAR.

ex. KFNL

KCTY 290435Z AUTO 00000KT 10SM CLR 23/23 A2990 RMK AO2 T02280226

29 Sep 2020 04:56

Frequency: 120.775

Phone: 352-498-0221

Other Area AWOS: K40J - KX60 - K24J - KLCQ

TAF AMD KGNV 290349Z 2904/2924 18003KT 6SM BR BKN008 TEMPO 2908/2912 2SM BR BKN005 FM291300 23005KT P6SM VCSH SCT015 BKN030 OVC150 FM291500 24008KT P6SM VCTS BKN020CB BKN050 OVC090 PROB30 2916/2920 VRB20G30KT 2SM +TSRA BR SCT010 OVC020CB